createdAt,value
2022-08-22T00:01:07.626Z,24.98
2022-08-22T00:03:07.477Z,24.95
2022-08-22T00:03:50.102Z,24.98
2022-08-22T00:06:57.990Z,24.98
2022-08-22T00:09:35.801Z,24.99
2022-08-22T00:12:50.574Z,24.98
2022-08-22T00:15:52.461Z,24.98
2022-08-22T00:19:02.943Z,24.98
2022-08-22T00:21:55.153Z,24.99
2022-08-22T00:24:28.590Z,25.00
2022-08-22T00:27:10.053Z,24.98
2022-08-22T00:29:45.813Z,24.98
2022-08-22T00:32:20.567Z,24.98
2022-08-22T00:35:00.684Z,24.99
2022-08-22T00:37:45.032Z,25.00
2022-08-22T00:40:36.850Z,25.01
2022-08-22T00:43:27.733Z,25.00
2022-08-22T00:46:09.345Z,25.01
2022-08-22T00:48:46.095Z,25.01
2022-08-22T00:51:42.846Z,25.02
2022-08-22T00:54:32.150Z,25.00
2022-08-22T00:57:19.670Z,25.02
2022-08-22T01:00:16.059Z,25.01
2022-08-22T01:02:52.762Z,25.00
2022-08-22T01:05:23.859Z,25.01
2022-08-22T01:07:51.235Z,25.02
2022-08-22T01:10:30.393Z,25.02
2022-08-22T01:13:07.064Z,25.02
2022-08-22T01:15:37.378Z,25.02
2022-08-22T01:18:28.866Z,25.03
2022-08-22T01:21:24.381Z,25.02
2022-08-22T01:24:33.899Z,25.02
2022-08-22T01:27:41.561Z,25.02
2022-08-22T01:30:40.950Z,25.03
2022-08-22T01:33:39.310Z,25.04
2022-08-22T01:36:22.099Z,25.03
2022-08-22T01:39:13.554Z,25.03
2022-08-22T01:42:25.597Z,25.03
2022-08-22T01:45:23.264Z,25.03
2022-08-22T01:48:00.873Z,25.03
2022-08-22T01:50:41.631Z,25.03
2022-08-22T01:53:22.929Z,25.03
2022-08-22T01:55:56.306Z,25.03
2022-08-22T01:58:29.831Z,25.03
2022-08-22T02:01:19.705Z,25.03
2022-08-22T02:04:01.616Z,25.03
2022-08-22T02:06:58.530Z,25.04
2022-08-22T02:09:38.209Z,25.03
2022-08-22T02:12:21.419Z,25.03
2022-08-22T02:14:54.689Z,25.04
2022-08-22T02:17:31.466Z,25.05
2022-08-22T02:20:10.425Z,25.05
2022-08-22T02:22:38.148Z,25.04
2022-08-22T02:25:21.645Z,25.07
2022-08-22T02:28:04.028Z,25.05
2022-08-22T02:31:00.329Z,25.05
2022-08-22T02:33:46.192Z,25.06
2022-08-22T02:36:54.608Z,25.05
2022-08-22T02:39:37.560Z,25.07
2022-08-22T02:42:33.782Z,25.07
2022-08-22T02:45:34.438Z,25.06
2022-08-22T02:48:10.614Z,25.05
2022-08-22T02:51:24.650Z,25.07
2022-08-22T02:54:28.128Z,25.08
2022-08-22T02:57:02.636Z,25.09
2022-08-22T02:59:38.469Z,25.08
2022-08-22T03:02:37.093Z,25.08
2022-08-22T03:05:28.672Z,25.08
2022-08-22T03:08:22.408Z,25.08
2022-08-22T03:10:56.595Z,25.10
2022-08-22T03:13:41.113Z,25.09
2022-08-22T03:16:27.081Z,25.09
2022-08-22T03:19:31.815Z,25.10
2022-08-22T03:22:02.340Z,25.09
2022-08-22T03:24:49.920Z,25.09
2022-08-22T03:27:49.484Z,25.08
2022-08-22T03:30:22.878Z,25.08
2022-08-22T03:33:13.773Z,25.08
2022-08-22T03:35:47.176Z,25.08
2022-08-22T03:38:14.812Z,25.07
2022-08-22T03:41:12.586Z,25.06
2022-08-22T03:43:58.936Z,25.06
2022-08-22T03:47:02.831Z,25.07
2022-08-22T03:49:49.062Z,25.05
2022-08-22T03:52:28.487Z,25.04
2022-08-22T03:55:14.091Z,25.05
2022-08-22T03:58:28.250Z,25.04
2022-08-22T04:01:08.524Z,25.05
2022-08-22T04:03:54.563Z,25.04
2022-08-22T04:06:40.838Z,25.05
2022-08-22T04:09:45.345Z,25.05
2022-08-22T04:12:48.449Z,25.05
2022-08-22T04:15:59.357Z,25.05
2022-08-22T04:18:36.238Z,25.04
2022-08-22T04:21:30.686Z,25.04
2022-08-22T04:24:25.135Z,25.04
2022-08-22T04:27:14.499Z,25.04
2022-08-22T04:29:52.180Z,25.04
2022-08-22T04:32:36.670Z,25.05
2022-08-22T04:35:17.740Z,25.04
2022-08-22T04:37:58.634Z,25.05
2022-08-22T04:40:38.712Z,25.05
2022-08-22T04:43:34.096Z,25.04
2022-08-22T04:46:26.324Z,25.05
2022-08-22T04:49:25.741Z,25.05
2022-08-22T04:52:09.287Z,25.05
2022-08-22T04:55:11.950Z,25.07
2022-08-22T04:57:48.579Z,25.07
2022-08-22T05:00:17.202Z,25.08
2022-08-22T05:02:51.205Z,25.07
2022-08-22T05:05:26.946Z,25.07
2022-08-22T05:07:59.698Z,25.07
2022-08-22T05:10:38.316Z,25.07
2022-08-22T05:13:25.066Z,25.07
2022-08-22T05:15:57.090Z,25.07
2022-08-22T05:18:33.034Z,25.07
2022-08-22T05:21:05.156Z,25.08
2022-08-22T05:23:42.389Z,25.07
2022-08-22T05:26:13.314Z,25.08
2022-08-22T05:28:52.493Z,25.09
2022-08-22T05:31:28.005Z,25.08
2022-08-22T05:34:06.008Z,25.08
2022-08-22T05:36:59.616Z,25.08
2022-08-22T05:39:29.852Z,25.07
2022-08-22T05:42:00.253Z,25.07
2022-08-22T05:44:32.277Z,25.07
2022-08-22T05:47:23.502Z,25.07
2022-08-22T05:50:19.013Z,25.08
2022-08-22T05:53:07.793Z,25.08
2022-08-22T05:55:39.519Z,25.09
2022-08-22T05:58:22.295Z,25.08
2022-08-22T06:01:16.495Z,25.08
2022-08-22T06:04:10.713Z,25.09
2022-08-22T06:06:46.734Z,25.09
2022-08-22T06:09:38.847Z,25.10
2022-08-22T06:12:21.892Z,25.09
2022-08-22T06:15:23.038Z,25.09
2022-08-22T06:18:05.056Z,25.09
2022-08-22T06:20:55.397Z,25.09
2022-08-22T06:23:46.946Z,25.09
2022-08-22T06:26:21.042Z,25.10
2022-08-22T06:28:54.715Z,25.10
2022-08-22T06:31:26.699Z,25.10
2022-08-22T06:34:17.503Z,25.11
2022-08-22T06:36:48.953Z,25.10
2022-08-22T06:39:16.542Z,25.11
2022-08-22T06:41:59.210Z,25.09
2022-08-22T06:44:34.317Z,25.09
2022-08-22T06:47:06.207Z,25.09
2022-08-22T06:49:37.668Z,25.09
2022-08-22T06:52:09.567Z,25.09
2022-08-22T06:54:43.158Z,25.09
2022-08-22T06:57:34.829Z,25.10
2022-08-22T07:00:10.301Z,25.10
2022-08-22T07:02:44.869Z,25.10
2022-08-22T07:05:18.234Z,25.11
2022-08-22T07:07:46.184Z,25.11
2022-08-22T07:10:15.970Z,25.10
2022-08-22T07:12:46.894Z,25.11
2022-08-22T07:15:35.365Z,25.12
2022-08-22T07:18:09.798Z,25.10
2022-08-22T07:20:41.964Z,25.11
2022-08-22T07:23:13.065Z,25.10
2022-08-22T07:26:19.175Z,25.11
2022-08-22T07:28:59.210Z,25.11
2022-08-22T07:32:06.158Z,25.10
2022-08-22T07:35:13.145Z,25.11
2022-08-22T07:38:16.709Z,25.11
2022-08-22T07:40:46.900Z,25.11
2022-08-22T07:43:41.457Z,25.11
2022-08-22T07:46:29.906Z,25.11
2022-08-22T07:49:13.062Z,25.11
2022-08-22T07:51:46.304Z,25.12
2022-08-22T07:54:27.139Z,25.13
2022-08-22T07:57:04.726Z,25.12
2022-08-22T07:59:37.099Z,25.12
2022-08-22T08:02:10.961Z,25.12
2022-08-22T08:04:41.022Z,25.12
2022-08-22T08:07:11.497Z,25.12
2022-08-22T08:09:44.469Z,25.12
2022-08-22T08:12:15.285Z,25.12
2022-08-22T08:14:46.169Z,25.12
2022-08-22T08:17:31.846Z,25.13
2022-08-22T08:20:06.641Z,25.14
2022-08-22T08:22:38.467Z,25.15
2022-08-22T08:25:08.224Z,25.14
2022-08-22T08:27:57.293Z,25.14
2022-08-22T08:30:39.070Z,25.14
2022-08-22T08:33:26.053Z,25.13
2022-08-22T08:36:05.367Z,25.14
2022-08-22T08:38:43.544Z,25.14
2022-08-22T08:41:35.385Z,25.14
2022-08-22T08:44:11.758Z,25.14
2022-08-22T08:47:13.220Z,25.14
2022-08-22T08:50:10.441Z,25.14
2022-08-22T08:52:43.886Z,25.15
2022-08-22T08:55:34.485Z,25.15
2022-08-22T08:59:01.087Z,25.17
2022-08-22T09:01:37.538Z,25.19
2022-08-22T09:04:15.428Z,25.20
2022-08-22T09:07:01.659Z,25.21
2022-08-22T09:09:41.345Z,25.21
2022-08-22T09:12:41.698Z,25.21
2022-08-22T09:15:31.446Z,25.22
2022-08-22T09:18:40.886Z,25.23
2022-08-22T09:21:31.324Z,25.23
2022-08-22T09:27:10.765Z,25.24
2022-08-22T09:30:07.698Z,25.25
2022-08-22T09:32:57.521Z,25.26
2022-08-22T09:35:40.085Z,25.25
2022-08-22T09:38:26.044Z,25.25
2022-08-22T09:41:17.800Z,25.26
2022-08-22T09:44:01.098Z,25.25
2022-08-22T09:46:49.717Z,25.26
2022-08-22T09:49:33.351Z,25.25
2022-08-22T09:52:33.259Z,25.25
2022-08-22T09:55:16.160Z,25.25
2022-08-22T09:57:56.788Z,25.26
2022-08-22T10:00:35.481Z,25.25
2022-08-22T10:03:21.830Z,25.26
2022-08-22T10:05:59.293Z,25.27
2022-08-22T10:08:55.576Z,25.27
2022-08-22T10:11:28.717Z,25.27
2022-08-22T10:14:01.496Z,25.28
2022-08-22T10:16:49.240Z,25.27
2022-08-22T10:19:41.626Z,25.26
2022-08-22T10:22:39.300Z,25.28
2022-08-22T10:25:22.699Z,25.29
2022-08-22T10:28:00.277Z,25.28
2022-08-22T10:31:13.240Z,25.29
2022-08-22T10:33:57.309Z,25.29
2022-08-22T10:36:34.060Z,25.29
2022-08-22T10:39:11.004Z,25.29
2022-08-22T10:41:54.542Z,25.29
2022-08-22T10:44:35.578Z,25.29
2022-08-22T10:47:13.486Z,25.30
2022-08-22T10:49:54.548Z,25.31
2022-08-22T10:52:31.327Z,25.30
2022-08-22T10:55:20.632Z,25.31
2022-08-22T10:58:10.758Z,25.31
2022-08-22T11:00:58.254Z,25.32
2022-08-22T11:03:26.145Z,25.33
2022-08-22T11:05:59.136Z,25.33
2022-08-22T11:08:45.356Z,25.32
2022-08-22T11:11:25.549Z,25.32
2022-08-22T11:14:16.367Z,25.33
2022-08-22T11:17:28.886Z,25.32
2022-08-22T11:20:44.793Z,25.33
2022-08-22T11:23:24.417Z,25.33
2022-08-22T11:26:30.081Z,25.33
2022-08-22T11:29:39.142Z,25.32
2022-08-22T11:32:33.957Z,25.32
2022-08-22T11:35:22.903Z,25.32
2022-08-22T11:38:22.614Z,25.33
2022-08-22T11:41:02.567Z,25.34
2022-08-22T11:43:49.279Z,25.33
2022-08-22T11:46:50.922Z,25.35
2022-08-22T11:49:39.432Z,25.37
2022-08-22T11:52:10.701Z,25.39
2022-08-22T11:55:02.262Z,25.41
2022-08-22T11:57:35.666Z,25.41
2022-08-22T12:00:12.936Z,25.41
2022-08-22T12:02:51.194Z,25.41
2022-08-22T12:05:24.712Z,25.41
2022-08-22T12:08:23.433Z,25.42
2022-08-22T12:11:08.708Z,25.42
2022-08-22T12:13:36.346Z,25.43
2022-08-22T12:16:39.328Z,25.44
2022-08-22T12:19:23.049Z,25.45
2022-08-22T12:22:39.484Z,25.49
2022-08-22T12:25:30.732Z,25.51
2022-08-22T12:28:15.756Z,25.53
2022-08-22T12:30:58.692Z,25.54
2022-08-22T12:33:55.562Z,25.55
2022-08-22T12:36:23.162Z,25.56
2022-08-22T12:38:57.090Z,25.56
2022-08-22T12:42:01.465Z,25.59
2022-08-22T12:44:58.991Z,25.61
2022-08-22T12:48:05.637Z,25.64
2022-08-22T12:50:51.825Z,25.65
2022-08-22T12:53:38.501Z,25.65
2022-08-22T12:56:36.918Z,25.66
2022-08-22T12:59:23.059Z,25.67
2022-08-22T13:01:55.403Z,25.67
2022-08-22T13:04:32.630Z,25.68
2022-08-22T13:07:17.573Z,25.69
2022-08-22T13:09:54.567Z,25.69
2022-08-22T13:12:44.576Z,25.71
2022-08-22T13:15:21.333Z,25.73
2022-08-22T13:17:55.032Z,25.74
2022-08-22T13:20:32.362Z,25.75
2022-08-22T13:23:11.039Z,25.78
2022-08-22T13:26:00.796Z,25.77
2022-08-22T13:28:31.377Z,25.77
2022-08-22T13:31:01.654Z,25.78
2022-08-22T13:33:35.977Z,25.79
2022-08-22T13:36:15.447Z,25.79
2022-08-22T13:39:29.197Z,25.78
2022-08-22T13:42:00.106Z,25.78
2022-08-22T13:44:36.092Z,25.78
2022-08-22T13:47:14.306Z,25.80
2022-08-22T13:49:50.552Z,25.80
2022-08-22T13:52:30.889Z,25.81
2022-08-22T13:55:12.472Z,25.82
2022-08-22T13:57:54.939Z,25.80
2022-08-22T14:00:37.745Z,25.80
2022-08-22T14:03:23.699Z,25.82
2022-08-22T14:05:53.238Z,25.83
2022-08-22T14:08:26.941Z,25.86
2022-08-22T14:10:57.586Z,25.89
2022-08-22T14:13:31.986Z,25.90
2022-08-22T14:16:02.592Z,25.90
2022-08-22T14:18:36.484Z,25.91
2022-08-22T14:21:42.820Z,25.92
2022-08-22T14:24:29.371Z,25.92
2022-08-22T14:27:00.015Z,25.92
2022-08-22T14:29:50.443Z,25.90
2022-08-22T14:32:26.759Z,25.91
2022-08-22T14:35:21.660Z,25.91
2022-08-22T14:37:59.576Z,25.91
2022-08-22T14:40:33.773Z,25.92
2022-08-22T14:43:35.592Z,25.90
2022-08-22T14:46:14.289Z,25.90
2022-08-22T14:49:03.409Z,25.90
2022-08-22T14:51:31.438Z,25.89
2022-08-22T14:54:21.597Z,25.86
2022-08-22T14:56:53.295Z,25.89
2022-08-22T14:59:37.170Z,25.88
2022-08-22T15:02:14.408Z,25.86
2022-08-22T15:04:46.398Z,25.86
2022-08-22T15:07:27.808Z,25.85
2022-08-22T15:10:03.153Z,25.84
2022-08-22T15:12:45.131Z,25.85
2022-08-22T15:15:16.869Z,25.84
2022-08-22T15:18:01.169Z,25.85
2022-08-22T15:20:31.298Z,25.84
2022-08-22T15:23:24.028Z,25.83
2022-08-22T15:26:03.860Z,25.82
2022-08-22T15:28:49.716Z,25.82
2022-08-22T15:31:22.172Z,25.82
2022-08-22T15:33:51.688Z,25.82
2022-08-22T15:36:22.593Z,25.79
2022-08-22T15:39:15.491Z,25.79
2022-08-22T15:41:46.724Z,25.78
2022-08-22T15:44:32.967Z,25.79
2022-08-22T15:47:31.557Z,25.79
2022-08-22T15:50:14.756Z,25.78
2022-08-22T15:53:21.665Z,25.77
2022-08-22T15:56:05.493Z,25.76
2022-08-22T15:58:48.074Z,25.76
2022-08-22T16:01:22.398Z,25.75
2022-08-22T16:03:59.576Z,25.76
2022-08-22T16:06:48.657Z,25.75
2022-08-22T16:09:43.419Z,25.74
2022-08-22T16:12:36.436Z,25.74
2022-08-22T16:15:26.352Z,25.75
2022-08-22T16:17:54.666Z,25.74
2022-08-22T16:20:22.148Z,25.74
2022-08-22T16:22:58.904Z,25.74
2022-08-22T16:25:45.093Z,25.74
2022-08-22T16:28:58.780Z,25.74
2022-08-22T16:31:37.689Z,25.74
2022-08-22T16:34:17.382Z,25.76
2022-08-22T16:36:45.317Z,25.77
2022-08-22T16:39:23.008Z,25.76
2022-08-22T16:42:21.822Z,25.77
2022-08-22T16:44:49.284Z,25.78
2022-08-22T16:47:32.656Z,25.77
2022-08-22T16:50:05.265Z,25.78
2022-08-22T16:52:40.641Z,25.77
2022-08-22T16:55:30.895Z,25.78
2022-08-22T16:58:09.309Z,25.78
2022-08-22T17:00:37.022Z,25.79
2022-08-22T17:03:10.541Z,25.78
2022-08-22T17:05:48.508Z,25.78
2022-08-22T17:09:04.420Z,25.79
2022-08-22T17:12:06.142Z,25.79
2022-08-22T17:14:33.867Z,25.79
2022-08-22T17:17:30.526Z,25.79
2022-08-22T17:20:14.509Z,25.78
2022-08-22T17:22:48.857Z,25.78
2022-08-22T17:25:19.607Z,25.78
2022-08-22T17:28:13.387Z,25.78
2022-08-22T17:31:02.583Z,25.79
2022-08-22T17:33:59.945Z,25.79
2022-08-22T17:36:46.293Z,25.78
2022-08-22T17:39:33.431Z,25.77
2022-08-22T17:42:48.400Z,25.78
2022-08-22T17:45:31.084Z,25.78
2022-08-22T17:48:16.621Z,25.78
2022-08-22T17:50:49.880Z,25.78
2022-08-22T17:53:45.029Z,25.78
2022-08-22T17:56:44.247Z,25.77
2022-08-22T17:59:35.177Z,25.76
2022-08-22T18:02:13.408Z,25.77
2022-08-22T18:04:49.702Z,25.78
2022-08-22T18:07:36.176Z,25.74
2022-08-22T18:10:19.582Z,25.75
2022-08-22T18:13:07.660Z,25.73
2022-08-22T18:15:47.138Z,25.71
2022-08-22T18:18:44.929Z,25.69
2022-08-22T18:21:35.799Z,25.69
2022-08-22T18:24:09.275Z,25.68
2022-08-22T18:27:01.452Z,25.69
2022-08-22T18:29:43.987Z,25.67
2022-08-22T18:32:29.206Z,25.66
2022-08-22T18:35:14.095Z,25.65
2022-08-22T18:38:19.229Z,25.65
2022-08-22T18:41:19.015Z,25.65
2022-08-22T18:43:48.267Z,25.64
2022-08-22T18:46:37.440Z,25.63
2022-08-22T18:49:21.060Z,25.64
2022-08-22T18:52:17.067Z,25.61
2022-08-22T18:55:12.657Z,25.62
2022-08-22T18:57:49.385Z,25.60
2022-08-22T19:00:38.196Z,25.58
2022-08-22T19:03:15.185Z,25.59
2022-08-22T19:06:07.640Z,25.59
2022-08-22T19:08:43.887Z,25.59
2022-08-22T19:11:36.483Z,25.58
2022-08-22T19:14:33.944Z,25.58
2022-08-22T19:17:15.066Z,25.58
2022-08-22T19:20:36.200Z,25.57
2022-08-22T19:23:31.935Z,25.55
2022-08-22T19:26:24.529Z,25.54
2022-08-22T19:29:00.251Z,25.55
2022-08-22T19:31:37.250Z,25.54
2022-08-22T19:34:30.586Z,25.53
2022-08-22T19:37:30.455Z,25.52
2022-08-22T19:40:09.117Z,25.53
2022-08-22T19:42:39.639Z,25.53
2022-08-22T19:45:31.338Z,25.53
2022-08-22T19:48:11.773Z,25.52
2022-08-22T19:50:43.115Z,25.53
2022-08-22T19:54:01.447Z,25.51
2022-08-22T19:57:07.224Z,25.52
2022-08-22T20:00:05.506Z,25.51
2022-08-22T20:02:58.118Z,25.50
2022-08-22T20:05:57.008Z,25.51
2022-08-22T20:08:31.583Z,25.50
2022-08-22T20:11:42.630Z,25.50
2022-08-22T20:14:31.135Z,25.51
2022-08-22T20:17:39.068Z,25.51
2022-08-22T20:20:18.388Z,25.49
2022-08-22T20:23:06.970Z,25.50
2022-08-22T20:25:50.094Z,25.51
2022-08-22T20:28:29.772Z,25.50
2022-08-22T20:31:02.238Z,25.50
2022-08-22T20:33:34.925Z,25.50
2022-08-22T20:36:13.844Z,25.50
2022-08-22T20:38:59.782Z,25.49
2022-08-22T20:41:35.715Z,25.50
2022-08-22T20:44:04.602Z,25.49
2022-08-22T20:46:55.021Z,25.49
2022-08-22T20:49:28.652Z,25.50
2022-08-22T20:52:09.756Z,25.50
2022-08-22T20:54:40.288Z,25.51
2022-08-22T20:57:17.492Z,25.50
2022-08-22T20:59:58.062Z,25.50
2022-08-22T21:02:35.660Z,25.49
2022-08-22T21:05:11.640Z,25.49
2022-08-22T21:07:39.402Z,25.49
2022-08-22T21:10:37.884Z,25.50
2022-08-22T21:13:11.131Z,25.50
2022-08-22T21:15:42.744Z,25.51
2022-08-22T21:18:27.601Z,25.50
2022-08-22T21:21:08.107Z,25.51
2022-08-22T21:23:59.926Z,25.49
2022-08-22T21:26:45.561Z,25.48
2022-08-22T21:29:13.108Z,25.45
2022-08-22T21:31:43.465Z,25.44
2022-08-22T21:34:37.094Z,25.44
2022-08-22T21:37:14.344Z,25.43
2022-08-22T21:39:45.988Z,25.41
2022-08-22T21:42:39.474Z,25.42
2022-08-22T21:45:30.129Z,25.40
2022-08-22T21:47:58.532Z,25.42
2022-08-22T21:50:34.513Z,25.41
2022-08-22T21:53:11.961Z,25.41
2022-08-22T21:55:43.095Z,25.41
2022-08-22T21:58:35.691Z,25.40
2022-08-22T22:01:26.456Z,25.39
2022-08-22T22:03:56.462Z,25.40
2022-08-22T22:06:23.881Z,25.38
2022-08-22T22:08:51.776Z,25.38
2022-08-22T22:11:20.853Z,25.37
2022-08-22T22:13:49.007Z,25.37
2022-08-22T22:16:23.493Z,25.36
2022-08-22T22:18:51.305Z,25.36
2022-08-22T22:21:18.920Z,25.37
2022-08-22T22:23:46.601Z,25.36
2022-08-22T22:26:14.445Z,25.37
2022-08-22T22:28:48.894Z,25.37
2022-08-22T22:31:18.264Z,25.37
2022-08-22T22:33:46.172Z,25.38
2022-08-22T22:36:21.926Z,25.36
2022-08-22T22:38:52.039Z,25.36
2022-08-22T22:41:25.230Z,25.35
2022-08-22T22:43:54.998Z,25.33
2022-08-22T22:46:23.311Z,25.33
2022-08-22T22:48:50.854Z,25.34
2022-08-22T22:51:19.909Z,25.33
2022-08-22T22:53:47.593Z,25.33
2022-08-22T22:56:21.464Z,25.33
2022-08-22T22:59:01.166Z,25.33
2022-08-22T23:01:39.028Z,25.32
2022-08-22T23:04:08.886Z,25.30
2022-08-22T23:06:36.354Z,25.30
2022-08-22T23:09:03.835Z,25.32
2022-08-22T23:11:31.656Z,25.30
2022-08-22T23:14:00.894Z,25.30
2022-08-22T23:16:28.859Z,25.29
2022-08-22T23:18:56.868Z,25.29
2022-08-22T23:21:28.198Z,25.29
2022-08-22T23:23:58.337Z,25.28
2022-08-22T23:26:26.625Z,25.28
2022-08-22T23:28:54.206Z,25.28
2022-08-22T23:31:37.634Z,25.28
2022-08-22T23:34:07.489Z,25.27
2022-08-22T23:36:35.287Z,25.27
2022-08-22T23:39:04.547Z,25.27
2022-08-22T23:41:32.470Z,25.27
2022-08-22T23:44:00.177Z,25.26
2022-08-22T23:46:28.037Z,25.27
2022-08-22T23:48:58.969Z,25.25
2022-08-22T23:51:27.433Z,25.26
2022-08-22T23:53:56.508Z,25.25
2022-08-22T23:56:40.280Z,25.25
2022-08-22T23:59:11.531Z,25.25
